Terminal Aerodrome Forecast
Issued by NWS

Home | Current Version | Previous Version | Text Only | Print | Product List | Glossary On
Versions: 1 2 3 4 5 6 7 8 9 10 11 12 13 14 15 16 17
000
FTUS41 KPHI 210830 AAA
TAFMIV
TAF AMD
KMIV 210830Z 2109/2206 VRB03KT P6SM SKC
      TEMPO 2109/2112 6SM BR
     FM211500 19004KT P6SM FEW060 FEW250
     FM211900 19008KT P6SM SCT060 SCT250
     FM220200 VRB03KT P6SM SCT060 BKN250=

USA.gov is the U.S. government's official web portal to all federal, state and local government web resources and services.